createdAt,value
2023-01-21T00:00:11.291Z,58.96
2023-01-21T00:02:38.073Z,58.65
2023-01-21T00:05:05.076Z,59.53
2023-01-21T00:07:31.832Z,59.37
2023-01-21T00:09:58.442Z,59.67
2023-01-21T00:12:25.075Z,59.72
2023-01-21T00:14:51.739Z,59.18
2023-01-21T00:17:18.395Z,59.23
2023-01-21T00:19:45.009Z,59.22
2023-01-21T00:22:12.418Z,59.54
2023-01-21T00:24:39.052Z,59.40
2023-01-21T00:27:05.831Z,58.90
2023-01-21T00:29:32.487Z,58.97
2023-01-21T00:31:59.217Z,59.33
2023-01-21T00:34:25.880Z,59.37
2023-01-21T00:36:52.857Z,59.06
2023-01-21T00:39:20.316Z,58.98
2023-01-21T00:41:47.020Z,59.12
2023-01-21T00:44:13.852Z,58.85
2023-01-21T00:46:40.500Z,58.81
2023-01-21T00:49:07.340Z,58.97
2023-01-21T00:56:06.881Z,58.71
2023-01-21T00:58:34.075Z,59.01
2023-01-21T01:01:06.608Z,58.81
2023-01-21T01:03:34.036Z,59.00
2023-01-21T01:06:13.466Z,59.41
2023-01-21T01:08:40.291Z,58.96
2023-01-21T01:11:07.456Z,58.93
2023-01-21T01:13:35.945Z,58.74
2023-01-21T01:16:03.076Z,58.65
2023-01-21T01:18:32.651Z,58.28
2023-01-21T01:21:00.127Z,58.19
2023-01-21T01:23:26.955Z,58.58
2023-01-21T01:26:04.819Z,58.64
2023-01-21T01:28:33.022Z,58.66
2023-01-21T01:31:00.474Z,59.13
2023-01-21T01:33:27.902Z,58.94
2023-01-21T01:35:54.814Z,58.22
2023-01-21T01:38:22.156Z,58.17
2023-01-21T01:40:50.894Z,58.15
2023-01-21T01:43:24.424Z,58.02
2023-01-21T01:45:52.086Z,58.23
2023-01-21T01:48:31.360Z,58.38
2023-01-21T01:51:03.402Z,58.40
2023-01-21T01:53:32.069Z,58.81
2023-01-21T01:55:59.839Z,58.54
2023-01-21T01:58:27.683Z,58.18
2023-01-21T02:00:54.690Z,58.03
2023-01-21T02:03:40.386Z,58.19
2023-01-21T02:06:07.675Z,58.27
2023-01-21T02:08:36.388Z,58.27
2023-01-21T02:11:10.699Z,58.19
2023-01-21T02:18:16.070Z,58.78
2023-01-21T02:21:07.749Z,58.74
2023-01-21T02:23:34.359Z,58.64
2023-01-21T02:26:49.059Z,58.56
2023-01-21T02:29:36.980Z,58.17
2023-01-21T02:32:16.319Z,58.59
2023-01-21T02:35:01.378Z,58.93
2023-01-21T02:38:03.680Z,58.74
2023-01-21T02:40:37.525Z,58.87
2023-01-21T02:43:16.235Z,59.11
2023-01-21T02:45:51.940Z,58.96
2023-01-21T02:48:31.729Z,59.03
2023-01-21T02:50:59.203Z,59.64
2023-01-21T02:53:30.757Z,60.04
2023-01-21T02:56:12.067Z,60.53
2023-01-21T02:58:43.613Z,60.63
2023-01-21T03:01:32.073Z,60.38
2023-01-21T03:04:12.939Z,60.18
2023-01-21T03:06:58.589Z,59.99
2023-01-21T03:09:27.831Z,60.31
2023-01-21T03:12:16.535Z,60.43
2023-01-21T03:15:38.992Z,60.09
2023-01-21T03:18:43.511Z,59.77
2023-01-21T03:21:24.373Z,59.77
2023-01-21T03:23:53.439Z,59.76
2023-01-21T03:26:29.644Z,59.55
2023-01-21T03:29:01.307Z,59.61
2023-01-21T03:31:33.126Z,59.57
2023-01-21T03:34:05.614Z,59.63
2023-01-21T03:36:37.100Z,59.81
2023-01-21T03:39:34.906Z,59.54
2023-01-21T03:42:02.694Z,59.66
2023-01-21T03:44:29.458Z,59.87
2023-01-21T03:47:17.887Z,59.24
2023-01-21T03:49:58.408Z,59.27
2023-01-21T03:52:26.816Z,59.68
2023-01-21T03:54:54.423Z,59.49
2023-01-21T03:57:21.359Z,59.41
2023-01-21T03:59:47.974Z,59.21
2023-01-21T04:02:20.103Z,59.25
2023-01-21T04:04:47.754Z,58.76
2023-01-21T04:07:16.240Z,59.21
2023-01-21T04:09:43.408Z,59.32
2023-01-21T04:12:10.516Z,59.24
2023-01-21T04:14:37.621Z,59.36
2023-01-21T04:17:04.955Z,59.30
2023-01-21T04:19:31.593Z,58.96
2023-01-21T04:21:58.399Z,58.89
2023-01-21T04:24:25.462Z,59.36
2023-01-21T04:26:52.803Z,59.43
2023-01-21T04:29:19.822Z,59.76
2023-01-21T04:31:47.734Z,59.68
2023-01-21T04:34:16.937Z,59.53
2023-01-21T04:36:43.666Z,59.51
2023-01-21T04:39:11.619Z,59.51
2023-01-21T04:41:38.222Z,59.00
2023-01-21T04:44:05.129Z,58.68
2023-01-21T04:46:31.814Z,58.33
2023-01-21T04:48:58.486Z,58.19
2023-01-21T04:51:25.201Z,57.86
2023-01-21T04:53:51.859Z,57.00
2023-01-21T04:56:18.527Z,57.34
2023-01-21T04:58:45.204Z,57.23
2023-01-21T05:01:11.999Z,56.58
2023-01-21T05:03:38.648Z,56.30
2023-01-21T05:06:05.368Z,55.44
2023-01-21T05:08:32.055Z,55.34
2023-01-21T05:10:58.753Z,55.25
2023-01-21T05:13:25.393Z,55.59
2023-01-21T05:15:52.761Z,55.39
2023-01-21T05:18:19.440Z,55.36
2023-01-21T05:20:46.215Z,55.70
2023-01-21T05:23:12.947Z,55.49
2023-01-21T05:25:39.554Z,55.06
2023-01-21T05:28:06.172Z,54.70
2023-01-21T05:30:32.891Z,54.23
2023-01-21T05:32:59.497Z,53.82
2023-01-21T05:35:26.199Z,53.39
2023-01-21T05:37:52.821Z,52.50
2023-01-21T05:40:19.771Z,51.68
2023-01-21T05:42:47.029Z,51.42
2023-01-21T05:45:14.643Z,51.67
2023-01-21T05:47:41.380Z,52.34
2023-01-21T05:50:09.124Z,51.68
2023-01-21T05:52:36.273Z,51.91
2023-01-21T05:55:03.850Z,51.86
2023-01-21T05:57:31.634Z,51.46
2023-01-21T05:59:59.010Z,53.19
2023-01-21T06:02:25.884Z,52.53
2023-01-21T06:04:52.791Z,52.20
2023-01-21T06:07:19.479Z,52.08
2023-01-21T06:09:46.113Z,52.41
2023-01-21T06:12:12.764Z,52.59
2023-01-21T06:14:39.398Z,52.45
2023-01-21T06:17:05.982Z,51.22
2023-01-21T06:19:32.577Z,51.92
2023-01-21T06:21:59.207Z,52.90
2023-01-21T06:24:25.797Z,53.27
2023-01-21T06:26:53.311Z,52.12
2023-01-21T06:29:19.974Z,51.62
2023-01-21T06:31:46.824Z,51.99
2023-01-21T06:34:13.766Z,52.36
2023-01-21T06:36:43.523Z,51.99
2023-01-21T06:39:10.983Z,51.11
2023-01-21T06:41:37.793Z,50.87
2023-01-21T06:44:05.399Z,51.81
2023-01-21T06:46:32.286Z,51.41
2023-01-21T06:48:59.472Z,51.44
2023-01-21T06:51:26.207Z,51.14
2023-01-21T06:53:52.980Z,51.51
2023-01-21T06:56:20.012Z,51.40
2023-01-21T06:58:46.599Z,51.99
2023-01-21T07:01:13.365Z,53.55
2023-01-21T07:03:39.969Z,54.36
2023-01-21T07:06:07.220Z,52.74
2023-01-21T07:08:33.969Z,51.32
2023-01-21T07:11:00.603Z,51.30
2023-01-21T07:13:27.314Z,51.20
2023-01-21T07:15:59.885Z,50.47
2023-01-21T07:18:26.663Z,50.56
2023-01-21T07:20:53.185Z,50.34
2023-01-21T07:23:19.941Z,51.20
2023-01-21T07:25:46.680Z,51.83
2023-01-21T07:28:13.413Z,51.62
2023-01-21T07:30:40.203Z,52.40
2023-01-21T07:33:07.601Z,52.31
2023-01-21T07:35:35.445Z,52.49
2023-01-21T07:38:02.750Z,52.79
2023-01-21T07:40:29.546Z,52.24
2023-01-21T07:42:56.633Z,52.27
2023-01-21T07:45:24.710Z,52.02
2023-01-21T07:47:51.579Z,51.76
2023-01-21T07:50:18.164Z,52.52
2023-01-21T07:52:44.739Z,52.65
2023-01-21T07:55:12.710Z,52.14
2023-01-21T07:57:39.932Z,52.71
2023-01-21T08:00:07.411Z,52.93
2023-01-21T08:02:39.107Z,53.03
2023-01-21T08:05:07.280Z,53.98
2023-01-21T08:07:33.976Z,52.75
2023-01-21T08:10:00.812Z,52.95
2023-01-21T08:12:27.510Z,52.77
2023-01-21T08:14:54.611Z,52.55
2023-01-21T08:17:21.342Z,52.93
2023-01-21T08:19:48.080Z,52.82
2023-01-21T08:22:14.650Z,52.93
2023-01-21T08:24:41.339Z,53.08
2023-01-21T08:27:08.101Z,52.78
2023-01-21T08:29:34.643Z,52.96
2023-01-21T08:32:01.681Z,53.05
2023-01-21T08:34:28.623Z,53.23
2023-01-21T08:36:55.258Z,53.07
2023-01-21T08:39:22.124Z,53.16
2023-01-21T08:41:48.953Z,53.42
2023-01-21T08:44:15.698Z,54.26
2023-01-21T08:46:42.292Z,53.94
2023-01-21T08:49:09.105Z,54.29
2023-01-21T08:51:35.636Z,54.52
2023-01-21T08:54:02.288Z,54.49
2023-01-21T08:56:28.989Z,54.19
2023-01-21T08:58:57.364Z,54.06
2023-01-21T09:01:25.913Z,53.86
2023-01-21T09:04:00.549Z,54.48
2023-01-21T09:11:03.778Z,53.51
2023-01-21T09:13:32.126Z,52.79
2023-01-21T09:15:59.060Z,54.22
2023-01-21T09:22:39.515Z,52.96
2023-01-21T09:25:10.221Z,53.40
2023-01-21T09:27:37.676Z,52.75
2023-01-21T09:30:04.685Z,52.81
2023-01-21T09:32:31.356Z,52.88
2023-01-21T09:34:58.033Z,52.25
2023-01-21T09:37:24.673Z,52.11
2023-01-21T09:39:51.271Z,51.19
2023-01-21T09:42:23.214Z,52.68
2023-01-21T09:49:19.333Z,51.72
2023-01-21T09:52:23.683Z,51.83
2023-01-21T09:54:50.647Z,52.86
2023-01-21T09:57:38.971Z,53.98
2023-01-21T10:00:37.006Z,52.12
2023-01-21T10:03:32.620Z,51.12
2023-01-21T10:06:35.242Z,52.20
2023-01-21T10:09:01.875Z,51.35
2023-01-21T10:11:52.918Z,48.67
2023-01-21T10:14:39.220Z,46.65
2023-01-21T10:17:42.866Z,47.56
2023-01-21T10:20:20.871Z,49.47
2023-01-21T10:23:12.708Z,50.69
2023-01-21T10:25:41.098Z,50.07
2023-01-21T10:28:21.553Z,50.26
2023-01-21T10:31:06.115Z,49.98
2023-01-21T10:33:34.097Z,49.34
2023-01-21T10:36:26.986Z,49.98
2023-01-21T10:39:31.392Z,50.64
2023-01-21T10:42:16.704Z,50.04
2023-01-21T10:45:14.273Z,50.44
2023-01-21T10:48:18.255Z,50.43
2023-01-21T10:51:02.294Z,50.76
2023-01-21T10:53:47.993Z,53.36
2023-01-21T10:56:23.762Z,50.48
2023-01-21T10:59:22.112Z,49.32
2023-01-21T11:05:51.964Z,46.89
2023-01-21T11:08:21.622Z,47.68
2023-01-21T11:10:53.407Z,47.86
2023-01-21T11:13:20.067Z,48.28
2023-01-21T11:15:52.413Z,48.27
2023-01-21T11:18:28.983Z,47.86
2023-01-21T11:20:59.250Z,47.31
2023-01-21T11:23:31.691Z,46.92
2023-01-21T11:26:09.420Z,47.31
2023-01-21T11:28:37.041Z,47.32
2023-01-21T11:31:14.287Z,48.73
2023-01-21T11:33:43.220Z,48.65
2023-01-21T11:36:18.608Z,47.88
2023-01-21T11:38:59.748Z,48.06
2023-01-21T11:41:26.449Z,47.13
2023-01-21T11:44:07.456Z,47.26
2023-01-21T11:46:39.507Z,46.11
2023-01-21T11:49:27.670Z,47.62
2023-01-21T11:52:15.633Z,46.44
2023-01-21T11:54:42.612Z,46.65
2023-01-21T11:57:19.626Z,46.23
2023-01-21T11:59:48.138Z,46.49
2023-01-21T12:02:31.860Z,46.85
2023-01-21T12:05:09.200Z,46.88
2023-01-21T12:07:40.474Z,47.02
2023-01-21T12:10:13.378Z,46.93
2023-01-21T12:13:12.172Z,46.87
2023-01-21T12:15:38.817Z,45.71
2023-01-21T12:18:31.003Z,45.85
2023-01-21T12:21:18.864Z,45.28
2023-01-21T12:24:13.336Z,45.23
2023-01-21T12:26:53.271Z,44.39
2023-01-21T12:29:25.706Z,44.97
2023-01-21T12:32:03.334Z,45.47
2023-01-21T12:34:40.066Z,47.16
2023-01-21T12:37:16.459Z,45.81
2023-01-21T12:39:44.675Z,45.51
2023-01-21T12:42:21.316Z,46.70
2023-01-21T12:44:59.646Z,46.84
2023-01-21T12:47:26.415Z,46.78
2023-01-21T12:54:10.103Z,46.25
2023-01-21T12:57:05.003Z,47.32
2023-01-21T13:04:04.976Z,48.17
2023-01-21T13:06:54.255Z,51.72
2023-01-21T13:09:49.366Z,50.35
2023-01-21T13:12:20.924Z,49.63
2023-01-21T13:14:55.159Z,48.03
2023-01-21T13:17:28.065Z,48.04
2023-01-21T13:19:54.763Z,48.11
2023-01-21T13:22:41.222Z,49.47
2023-01-21T13:25:28.740Z,49.03
2023-01-21T13:32:22.247Z,51.57
2023-01-21T13:35:07.648Z,51.05
2023-01-21T13:37:48.214Z,52.28
2023-01-21T13:40:57.328Z,51.87
2023-01-21T13:43:26.879Z,52.86
2023-01-21T13:46:18.444Z,52.85
2023-01-21T13:53:11.025Z,53.71
2023-01-21T13:55:40.318Z,53.67
2023-01-21T14:02:39.835Z,53.69
2023-01-21T14:05:20.196Z,54.29
2023-01-21T14:07:54.226Z,55.21
2023-01-21T14:10:33.194Z,55.22
2023-01-21T14:13:09.026Z,54.70
2023-01-21T14:15:54.079Z,54.52
2023-01-21T14:18:36.199Z,54.51
2023-01-21T14:21:21.862Z,54.49
2023-01-21T14:24:17.720Z,54.36
2023-01-21T14:26:53.206Z,54.23
2023-01-21T14:29:42.241Z,53.88
2023-01-21T14:32:21.055Z,53.79
2023-01-21T14:35:06.083Z,53.79
2023-01-21T14:37:38.239Z,53.61
2023-01-21T14:40:17.067Z,53.93
2023-01-21T14:42:49.711Z,53.74
2023-01-21T14:45:26.098Z,53.90
2023-01-21T14:47:54.586Z,54.20
2023-01-21T14:50:51.074Z,53.61
2023-01-21T14:53:19.272Z,52.92
2023-01-21T14:55:45.988Z,52.97
2023-01-21T14:58:21.995Z,52.47
2023-01-21T15:00:49.107Z,52.84
2023-01-21T15:03:27.607Z,51.79
2023-01-21T15:06:00.662Z,50.69
2023-01-21T15:08:45.584Z,49.93
2023-01-21T15:11:41.012Z,49.04
2023-01-21T15:14:25.773Z,48.76
2023-01-21T15:16:52.567Z,49.00
2023-01-21T15:19:20.840Z,48.79
2023-01-21T15:21:59.823Z,48.96
2023-01-21T15:24:30.610Z,48.18
2023-01-21T15:27:22.736Z,48.40
2023-01-21T15:29:55.341Z,48.11
2023-01-21T15:32:37.470Z,48.83
2023-01-21T15:35:13.574Z,48.23
2023-01-21T15:37:44.000Z,48.97
2023-01-21T15:40:21.706Z,48.46
2023-01-21T15:42:58.375Z,48.26
2023-01-21T15:45:43.859Z,48.55
2023-01-21T15:48:16.284Z,47.46
2023-01-21T15:50:57.378Z,47.81
2023-01-21T15:57:54.607Z,46.61
2023-01-21T16:00:43.785Z,46.14
2023-01-21T16:03:33.021Z,46.45
2023-01-21T16:06:07.780Z,47.10
2023-01-21T16:08:58.248Z,47.56
2023-01-21T16:11:31.910Z,47.13
2023-01-21T16:14:13.822Z,47.09
2023-01-21T16:17:19.025Z,46.71
2023-01-21T16:19:50.279Z,46.59
2023-01-21T16:22:27.539Z,46.77
2023-01-21T16:25:01.100Z,45.79
2023-01-21T16:27:31.059Z,46.19
2023-01-21T16:30:00.760Z,46.19
2023-01-21T16:32:28.054Z,47.11
2023-01-21T16:34:54.721Z,49.04
2023-01-21T16:37:24.828Z,48.49
2023-01-21T16:40:12.181Z,48.60
2023-01-21T16:42:44.305Z,48.84
2023-01-21T16:45:11.101Z,49.36
2023-01-21T16:47:37.942Z,48.91
2023-01-21T16:50:05.766Z,48.99
2023-01-21T16:52:32.950Z,48.55
2023-01-21T16:54:59.644Z,49.00
2023-01-21T16:57:31.654Z,50.75
2023-01-21T17:00:02.525Z,51.57
2023-01-21T17:02:34.042Z,50.87
2023-01-21T17:05:06.713Z,51.34
2023-01-21T17:07:45.789Z,49.98
2023-01-21T17:10:15.783Z,49.54
2023-01-21T17:12:48.626Z,50.72
2023-01-21T17:15:30.347Z,50.79
2023-01-21T17:18:00.273Z,51.88
2023-01-21T17:20:41.040Z,49.90
2023-01-21T17:23:14.991Z,49.61
2023-01-21T17:25:42.564Z,49.56
2023-01-21T17:28:25.186Z,49.62
2023-01-21T17:31:08.824Z,50.02
2023-01-21T17:33:35.621Z,49.25
2023-01-21T17:36:13.811Z,50.49
2023-01-21T17:38:45.987Z,51.71
2023-01-21T17:41:25.118Z,50.87
2023-01-21T17:43:55.795Z,51.55
2023-01-21T17:50:36.235Z,52.52
2023-01-21T17:53:04.322Z,52.54
2023-01-21T17:55:36.786Z,53.62
2023-01-21T17:58:06.116Z,52.38
2023-01-21T18:00:38.495Z,54.14
2023-01-21T18:03:05.404Z,54.29
2023-01-21T18:05:32.478Z,52.42
2023-01-21T18:07:59.198Z,52.85
2023-01-21T18:10:27.998Z,52.09
2023-01-21T18:12:56.257Z,51.46
2023-01-21T18:15:23.049Z,51.52
2023-01-21T18:17:57.935Z,51.46
2023-01-21T18:24:45.117Z,50.99
2023-01-21T18:27:12.121Z,51.92
2023-01-21T18:29:38.814Z,52.29
2023-01-21T18:32:05.624Z,53.94
2023-01-21T18:34:32.381Z,53.87
2023-01-21T18:36:59.189Z,53.01
2023-01-21T18:39:26.064Z,53.03
2023-01-21T18:41:52.875Z,53.39
2023-01-21T18:48:45.192Z,52.50
2023-01-21T18:51:13.106Z,53.40
2023-01-21T18:53:39.861Z,53.53
2023-01-21T18:56:10.037Z,53.93
2023-01-21T18:58:36.664Z,54.36
2023-01-21T19:01:13.930Z,53.79
2023-01-21T19:03:45.562Z,52.58
2023-01-21T19:06:16.512Z,52.59
2023-01-21T19:08:45.222Z,53.18
2023-01-21T19:11:12.749Z,53.19
2023-01-21T19:13:39.436Z,52.31
2023-01-21T19:16:12.732Z,53.63
2023-01-21T19:18:39.379Z,53.50
2023-01-21T19:21:08.220Z,52.96
2023-01-21T19:23:35.912Z,52.49
2023-01-21T19:26:03.738Z,51.99
2023-01-21T19:28:31.495Z,51.82
2023-01-21T19:30:58.557Z,51.55
2023-01-21T19:33:26.052Z,53.00
2023-01-21T19:36:03.729Z,52.85
2023-01-21T19:38:30.621Z,53.47
2023-01-21T19:40:57.396Z,54.68
2023-01-21T19:43:23.973Z,53.64
2023-01-21T19:45:51.846Z,53.45
2023-01-21T19:48:21.014Z,53.20
2023-01-21T19:50:48.098Z,53.86
2023-01-21T19:53:17.557Z,53.27
2023-01-21T19:55:46.347Z,53.42
2023-01-21T19:58:22.438Z,53.58
2023-01-21T20:00:51.141Z,53.62
2023-01-21T20:07:45.984Z,54.75
2023-01-21T20:10:21.486Z,54.48
2023-01-21T20:12:48.711Z,54.91
2023-01-21T20:15:17.549Z,54.43
2023-01-21T20:17:48.939Z,54.04
2023-01-21T20:20:21.649Z,54.26
2023-01-21T20:22:48.604Z,53.54
2023-01-21T20:25:17.757Z,53.74
2023-01-21T20:27:50.685Z,53.26
2023-01-21T20:30:23.671Z,53.47
2023-01-21T20:32:50.336Z,54.20
2023-01-21T20:35:18.980Z,54.81
2023-01-21T20:37:50.626Z,54.55
2023-01-21T20:40:22.932Z,53.63
2023-01-21T20:42:50.618Z,53.76
2023-01-21T20:45:19.647Z,53.18
2023-01-21T20:47:50.502Z,52.96
2023-01-21T20:50:23.757Z,53.19
2023-01-21T20:52:51.957Z,54.32
2023-01-21T20:55:21.539Z,54.64
2023-01-21T20:57:48.487Z,54.11
2023-01-21T21:00:28.209Z,53.56
2023-01-21T21:02:55.796Z,53.21
2023-01-21T21:05:23.973Z,53.08
2023-01-21T21:07:51.110Z,53.40
2023-01-21T21:10:29.432Z,53.44
2023-01-21T21:12:56.264Z,52.98
2023-01-21T21:15:34.554Z,53.09
2023-01-21T21:18:03.440Z,53.41
2023-01-21T21:20:33.725Z,53.89
2023-01-21T21:23:00.384Z,54.22
2023-01-21T21:25:29.715Z,54.87
2023-01-21T21:27:57.113Z,55.07
2023-01-21T21:30:29.603Z,55.02
2023-01-21T21:32:58.080Z,54.64
2023-01-21T21:35:27.819Z,54.56
2023-01-21T21:37:56.549Z,54.50
2023-01-21T21:40:25.978Z,54.48
2023-01-21T21:43:12.090Z,54.93
2023-01-21T21:45:41.041Z,55.24
2023-01-21T21:48:38.865Z,55.33
2023-01-21T21:51:06.942Z,56.10
2023-01-21T21:53:33.733Z,55.61
2023-01-21T21:56:05.476Z,54.85
2023-01-21T21:58:32.257Z,55.40
2023-01-21T22:01:09.267Z,55.13
2023-01-21T22:03:36.028Z,55.40
2023-01-21T22:06:04.053Z,54.86
2023-01-21T22:08:32.845Z,55.44
2023-01-21T22:11:01.115Z,54.92
2023-01-21T22:13:28.957Z,54.58
2023-01-21T22:15:57.453Z,54.82
2023-01-21T22:18:25.504Z,55.10
2023-01-21T22:20:55.628Z,54.92
2023-01-21T22:23:22.781Z,54.90
2023-01-21T22:25:49.636Z,55.31
2023-01-21T22:28:16.786Z,55.62
2023-01-21T22:30:43.605Z,55.43
2023-01-21T22:33:11.283Z,54.83
2023-01-21T22:35:40.014Z,54.67
2023-01-21T22:38:07.135Z,54.80
2023-01-21T22:40:36.747Z,55.63
2023-01-21T22:47:10.548Z,54.69
2023-01-21T22:49:37.127Z,54.92
2023-01-21T22:52:04.032Z,54.65
2023-01-21T22:54:30.628Z,54.69
2023-01-21T22:56:57.335Z,55.32
2023-01-21T22:59:23.847Z,56.38
2023-01-21T23:01:51.276Z,55.65
2023-01-21T23:04:18.189Z,56.44
2023-01-21T23:06:44.825Z,56.03
2023-01-21T23:09:16.272Z,55.78
2023-01-21T23:11:45.074Z,55.60
2023-01-21T23:14:12.515Z,55.68
2023-01-21T23:16:39.966Z,55.43
2023-01-21T23:19:06.588Z,55.76
2023-01-21T23:21:33.288Z,55.53
2023-01-21T23:23:59.847Z,55.84
2023-01-21T23:26:26.514Z,56.13
2023-01-21T23:28:56.175Z,56.43
2023-01-21T23:31:24.142Z,56.00
2023-01-21T23:33:52.524Z,56.33
2023-01-21T23:36:19.718Z,57.35
2023-01-21T23:38:46.372Z,57.01
2023-01-21T23:41:16.992Z,57.17
2023-01-21T23:43:43.722Z,57.29
2023-01-21T23:46:16.679Z,57.39
2023-01-21T23:48:43.846Z,57.60
2023-01-21T23:51:13.509Z,57.80
2023-01-21T23:53:40.342Z,57.48
2023-01-21T23:56:09.223Z,57.66
2023-01-21T23:58:35.944Z,57.56
